Time;durP1;ratioP1;P1;durP2;ratioP2;P2;SDS_P1;SDS_P2;PMS_P1;PMS_P2;Temp;Humidity;BMP_temperature;BMP_pressure;BME280_temperature;BME280_humidity;BME280_pressure;Samples;Min_cycle;Max_cycle;Signal;HPM_P1;HPM_P2
2024/01/08 00:00:30;;;;;;;7.00;6.50;;;-0.50;1.00;;;;;;5051485;28;20185;-74
2024/01/08 00:02:55;;;;;;;7.43;6.53;;;-0.50;1.00;;;;;;5051111;28;20178;-74
2024/01/08 00:05:21;;;;;;;7.77;6.13;;;-0.40;1.00;;;;;;5051314;28;20264;-71
2024/01/08 00:07:46;;;;;;;6.77;6.27;;;-0.50;1.00;;;;;;5049557;28;20187;-73
2024/01/08 00:10:12;;;;;;;6.40;5.90;;;-0.40;1.00;;;;;;5050913;28;20170;-73
2024/01/08 00:12:37;;;;;;;6.90;5.60;;;-0.50;1.00;;;;;;5051549;28;20655;-73
2024/01/08 00:15:04;;;;;;;6.03;5.53;;;-0.50;1.00;;;;;;5050554;28;20171;-73
2024/01/08 00:17:30;;;;;;;6.77;6.23;;;-0.50;1.00;;;;;;5030618;28;20237;-73
2024/01/08 00:19:56;;;;;;;5.43;5.13;;;-0.50;1.00;;;;;;5031135;28;20179;-74
2024/01/08 00:22:21;;;;;;;6.20;5.80;;;-0.50;1.00;;;;;;5031014;28;20638;-74
2024/01/08 00:24:47;;;;;;;5.80;5.40;;;-0.40;1.00;;;;;;5030749;28;20168;-73
2024/01/08 00:27:12;;;;;;;5.93;5.43;;;-0.50;1.00;;;;;;5013100;28;20689;-74
2024/01/08 00:29:38;;;;;;;6.90;6.33;;;-0.50;1.00;;;;;;5031057;28;20253;-74
2024/01/08 00:32:05;;;;;;;6.10;5.50;;;-0.50;1.00;;;;;;5049424;28;20217;-74
2024/01/08 00:34:31;;;;;;;6.87;6.37;;;-0.40;1.00;;;;;;5051084;28;20256;-74
2024/01/08 00:36:56;;;;;;;6.20;5.80;;;-0.50;1.00;;;;;;5051216;28;20265;-73
2024/01/08 00:39:23;;;;;;;7.17;6.57;;;-0.40;1.00;;;;;;5055110;28;20175;-74
2024/01/08 00:41:49;;;;;;;7.67;6.30;;;-0.40;1.00;;;;;;5055132;28;20193;-74
2024/01/08 00:44:14;;;;;;;7.47;6.77;;;-0.40;1.00;;;;;;5054719;28;20198;-73
2024/01/08 00:46:40;;;;;;;7.10;6.40;;;-0.40;1.00;;;;;;5054567;28;20213;-73
2024/01/08 00:49:05;;;;;;;6.53;6.03;;;-0.40;1.00;;;;;;5054868;28;20673;-73
2024/01/08 00:51:31;;;;;;;7.77;7.17;;;-0.40;1.00;;;;;;5055710;28;20217;-74
2024/01/08 00:53:57;;;;;;;9.10;8.40;;;-0.40;1.00;;;;;;5058993;28;20181;-73
2024/01/08 00:56:22;;;;;;;7.60;7.00;;;-0.40;1.00;;;;;;5054588;28;20211;-74
2024/01/08 00:58:48;;;;;;;7.50;6.90;;;-0.40;1.00;;;;;;5054082;28;20198;-74
2024/01/08 01:01:14;;;;;;;7.57;6.77;;;-0.40;1.00;;;;;;5054503;28;20178;-74
2024/01/08 01:03:40;;;;;;;7.73;7.13;;;-0.40;1.00;;;;;;5054370;28;20171;-74
2024/01/08 01:06:05;;;;;;;7.70;7.00;;;-0.40;1.00;;;;;;5054116;28;20268;-73
2024/01/08 01:08:31;;;;;;;7.53;6.93;;;-0.40;1.00;;;;;;5053563;28;20205;-74
2024/01/08 01:10:57;;;;;;;7.03;6.50;;;-0.40;1.00;;;;;;5053913;28;20560;-73
2024/01/08 01:13:22;;;;;;;7.37;6.77;;;-0.50;1.00;;;;;;5054091;28;20159;-73
2024/01/08 01:15:48;;;;;;;7.80;6.30;;;-0.50;1.00;;;;;;5054084;28;20212;-73
2024/01/08 01:18:14;;;;;;;7.47;6.83;;;-0.50;1.00;;;;;;5053619;28;20281;-73
2024/01/08 01:20:39;;;;;;;7.50;6.83;;;-0.40;1.00;;;;;;5053934;28;20171;-74
2024/01/08 01:23:05;;;;;;;7.47;6.87;;;-0.50;1.00;;;;;;5053875;28;20552;-74
2024/01/08 01:25:30;;;;;;;7.37;6.87;;;-0.50;1.00;;;;;;5053891;28;20202;-74
2024/01/08 01:27:56;;;;;;;8.07;7.27;;;-0.50;1.00;;;;;;5053379;28;20210;-74
2024/01/08 01:30:21;;;;;;;7.60;7.00;;;-0.50;1.00;;;;;;5053940;28;20584;-74
2024/01/08 01:32:48;;;;;;;6.60;6.10;;;-0.50;1.00;;;;;;5053858;28;20621;-74
2024/01/08 01:35:14;;;;;;;7.07;6.47;;;-0.40;1.00;;;;;;5054100;28;20182;-74
2024/01/08 01:37:41;;;;;;;7.90;7.20;;;-0.50;1.00;;;;;;5053477;28;20599;-72
2024/01/08 01:40:08;;;;;;;8.47;7.77;;;-0.40;1.00;;;;;;5053417;28;20186;-73
2024/01/08 01:42:34;;;;;;;7.70;7.10;;;-0.50;1.00;;;;;;5035690;28;20182;-74
2024/01/08 01:44:59;;;;;;;7.80;7.07;;;-0.40;1.00;;;;;;5053251;28;20605;-74
2024/01/08 01:47:25;;;;;;;7.97;7.17;;;-0.40;1.00;;;;;;5053274;28;20190;-73
2024/01/08 01:49:53;;;;;;;8.20;7.20;;;-0.40;1.00;;;;;;5052766;28;20170;-74
2024/01/08 01:52:20;;;;;;;7.83;7.13;;;-0.50;1.00;;;;;;5053223;28;20179;-73
2024/01/08 01:54:47;;;;;;;7.90;7.03;;;-0.40;1.00;;;;;;5053619;28;20174;-73
2024/01/08 01:57:13;;;;;;;8.20;7.50;;;-0.50;1.00;;;;;;5053269;28;20639;-74
2024/01/08 01:59:38;;;;;;;8.47;7.57;;;-0.60;1.00;;;;;;5053558;28;20209;-73
2024/01/08 02:02:07;;;;;;;7.97;7.17;;;-0.60;1.00;;;;;;5053620;28;20194;-74
2024/01/08 02:04:32;;;;;;;7.43;6.83;;;-0.60;1.00;;;;;;5053396;28;20171;-75
2024/01/08 02:07:00;;;;;;;8.83;7.17;;;-0.60;1.00;;;;;;5052847;28;20551;-73
2024/01/08 02:09:27;;;;;;;8.37;7.10;;;-0.60;1.00;;;;;;5053439;28;20186;-75
2024/01/08 02:11:52;;;;;;;9.60;6.83;;;-0.60;1.00;;;;;;5053507;28;20213;-74
2024/01/08 02:14:18;;;;;;;8.73;7.93;;;-0.60;1.00;;;;;;5053630;28;20643;-74
2024/01/08 02:16:44;;;;;;;7.70;7.00;;;-0.60;1.00;;;;;;5053939;28;20653;-74
2024/01/08 02:19:11;;;;;;;8.50;7.70;;;-0.50;1.00;;;;;;5051867;28;20194;-74
2024/01/08 02:21:36;;;;;;;8.63;7.93;;;-0.60;1.00;;;;;;5052706;28;20174;-73
2024/01/08 02:24:03;;;;;;;8.50;7.13;;;-0.60;1.00;;;;;;5052635;28;20599;-73
2024/01/08 02:26:29;;;;;;;8.77;8.00;;;-0.50;1.00;;;;;;5052862;28;20272;-73
2024/01/08 02:28:54;;;;;;;8.60;7.80;;;-0.60;1.00;;;;;;5052816;28;20195;-73
2024/01/08 02:31:20;;;;;;;7.57;6.87;;;-0.50;1.00;;;;;;5051381;28;20179;-73
2024/01/08 02:33:46;;;;;;;9.67;7.60;;;-0.60;1.00;;;;;;5052101;28;20250;-73
2024/01/08 02:36:11;;;;;;;7.77;7.17;;;-0.60;1.00;;;;;;5052452;28;20310;-73
2024/01/08 02:38:37;;;;;;;7.70;7.03;;;-0.80;1.00;;;;;;5052346;28;20235;-74
2024/01/08 02:41:03;;;;;;;7.60;6.87;;;-0.80;1.00;;;;;;5052165;28;20220;-72
2024/01/08 02:43:28;;;;;;;8.13;7.33;;;-0.90;1.00;;;;;;5052488;28;20658;-73
2024/01/08 02:45:54;;;;;;;7.50;6.80;;;-1.10;1.00;;;;;;5052365;28;20206;-73
2024/01/08 02:48:19;;;;;;;8.13;6.93;;;-1.20;1.00;;;;;;5051835;28;20573;-73
2024/01/08 02:50:45;;;;;;;7.90;7.30;;;-1.10;1.00;;;;;;5052517;28;20170;-73
2024/01/08 02:53:11;;;;;;;6.97;6.47;;;-1.20;1.00;;;;;;5052726;28;20175;-73
2024/01/08 02:55:36;;;;;;;8.60;7.80;;;-1.10;1.00;;;;;;5052869;28;20179;-73
2024/01/08 02:58:05;;;;;;;8.40;7.60;;;-1.20;1.00;;;;;;5052536;28;20202;-73
2024/01/08 03:00:31;;;;;;;7.53;6.93;;;-1.00;1.00;;;;;;5052566;28;20186;-73
2024/01/08 03:02:56;;;;;;;8.13;7.37;;;-1.00;1.00;;;;;;5051439;28;20670;-73
2024/01/08 03:05:22;;;;;;;7.90;7.07;;;-1.00;1.00;;;;;;5051972;28;20760;-74
2024/01/08 03:07:48;;;;;;;8.73;6.93;;;-1.10;1.00;;;;;;5051748;28;20266;-73
2024/01/08 03:10:13;;;;;;;8.53;7.50;;;-0.90;1.00;;;;;;5051733;28;20175;-73
2024/01/08 03:12:39;;;;;;;7.37;6.70;;;-1.00;1.00;;;;;;5052060;28;20548;-73
2024/01/08 03:15:05;;;;;;;8.80;7.90;;;-1.10;1.00;;;;;;5052058;28;20587;-76
2024/01/08 03:17:31;;;;;;;7.57;6.87;;;-0.90;1.00;;;;;;5051379;28;20565;-73
2024/01/08 03:19:56;;;;;;;8.07;7.27;;;-1.00;1.00;;;;;;5052008;28;20175;-73
2024/01/08 03:22:22;;;;;;;8.87;7.97;;;-1.00;1.00;;;;;;5050491;28;20179;-73
2024/01/08 03:24:47;;;;;;;8.13;7.33;;;-1.10;1.00;;;;;;5050193;28;20686;-73
2024/01/08 03:27:13;;;;;;;8.33;7.53;;;-1.00;1.00;;;;;;5051337;28;20304;-73
2024/01/08 03:29:39;;;;;;;8.33;7.57;;;-1.10;1.00;;;;;;5051240;28;20183;-73
2024/01/08 03:32:05;;;;;;;8.53;7.60;;;-1.10;1.00;;;;;;5051476;28;20171;-72
2024/01/08 03:34:32;;;;;;;8.73;7.93;;;-1.00;1.00;;;;;;5051675;28;20179;-73
2024/01/08 03:36:57;;;;;;;9.17;8.27;;;-1.00;1.00;;;;;;5050507;28;20178;-73
2024/01/08 03:39:23;;;;;;;8.77;8.07;;;-1.00;1.00;;;;;;5052767;28;20167;-73
2024/01/08 03:41:49;;;;;;;8.20;7.50;;;-1.00;1.00;;;;;;5051413;28;20175;-73
2024/01/08 03:44:15;;;;;;;9.27;8.37;;;-1.00;1.00;;;;;;5051585;28;20244;-72
2024/01/08 03:46:42;;;;;;;9.50;8.30;;;-1.10;1.00;;;;;;5051326;28;20268;-73
2024/01/08 03:49:08;;;;;;;10.53;8.30;;;-1.00;1.00;;;;;;5051547;28;20624;-74
2024/01/08 03:51:34;;;;;;;10.80;8.93;;;-1.10;1.00;;;;;;5051231;28;20258;-73
2024/01/08 03:54:00;;;;;;;10.37;8.20;;;-1.00;1.00;;;;;;5051085;28;20159;-73
2024/01/08 03:56:26;;;;;;;8.90;8.00;;;-1.10;1.00;;;;;;5050863;28;20191;-72
2024/01/08 03:58:51;;;;;;;8.53;7.80;;;-1.20;1.00;;;;;;5050934;28;20197;-73
2024/01/08 04:01:17;;;;;;;9.80;8.90;;;-1.10;1.00;;;;;;5051368;28;20253;-73
2024/01/08 04:03:42;;;;;;;10.20;9.23;;;-1.20;1.00;;;;;;5051215;28;20183;-72
2024/01/08 04:06:08;;;;;;;10.27;9.27;;;-1.20;1.00;;;;;;5051297;28;20209;-73
2024/01/08 04:08:34;;;;;;;10.40;9.00;;;-1.20;1.00;;;;;;5051191;28;20194;-73
2024/01/08 04:10:59;;;;;;;10.03;9.03;;;-1.20;1.00;;;;;;5050857;28;20179;-73
2024/01/08 04:13:25;;;;;;;10.03;9.03;;;-1.00;1.00;;;;;;5057077;28;20190;-73
2024/01/08 04:15:51;;;;;;;9.33;8.50;;;-1.10;1.00;;;;;;5057650;28;20175;-73
2024/01/08 04:18:17;;;;;;;11.00;10.00;;;-1.10;1.00;;;;;;5057641;28;20312;-72
2024/01/08 04:20:43;;;;;;;10.07;8.87;;;-1.10;1.00;;;;;;5058470;28;20308;-73
2024/01/08 04:23:09;;;;;;;11.17;9.30;;;-0.90;1.00;;;;;;5057374;28;20209;-73
2024/01/08 04:25:34;;;;;;;12.10;10.73;;;-0.90;1.00;;;;;;5057603;28;20206;-73
2024/01/08 04:28:00;;;;;;;12.07;10.77;;;-1.10;1.00;;;;;;5057270;28;20194;-73
2024/01/08 04:30:25;;;;;;;13.20;10.80;;;-0.90;1.00;;;;;;5057366;28;20162;-73
2024/01/08 04:32:52;;;;;;;14.07;10.80;;;-1.20;1.00;;;;;;5057556;28;20733;-73
2024/01/08 04:35:18;;;;;;;13.77;12.33;;;-1.00;1.00;;;;;;5057423;28;20181;-73
2024/01/08 04:37:43;;;;;;;12.33;10.50;;;-1.00;1.00;;;;;;5056819;28;20210;-73
2024/01/08 04:40:10;;;;;;;13.80;11.63;;;-1.10;1.00;;;;;;5057597;28;20736;-73
2024/01/08 04:42:35;;;;;;;16.10;12.00;;;-1.00;1.00;;;;;;5057453;28;20185;-73
2024/01/08 04:45:01;;;;;;;14.43;12.57;;;-0.90;1.00;;;;;;5056806;28;20262;-73
2024/01/08 04:47:26;;;;;;;12.70;11.37;;;-1.00;1.00;;;;;;5057046;28;20190;-73
2024/01/08 04:49:52;;;;;;;13.77;12.37;;;-1.00;1.00;;;;;;5057188;28;20227;-73
2024/01/08 04:52:17;;;;;;;15.10;12.23;;;-0.90;1.00;;;;;;5057252;28;20541;-72
2024/01/08 04:54:43;;;;;;;13.30;11.90;;;-0.90;1.00;;;;;;5057017;28;20189;-73
2024/01/08 04:57:09;;;;;;;12.73;10.67;;;-1.00;1.00;;;;;;5057147;28;20198;-73
2024/01/08 04:59:44;;;;;;;12.90;10.97;;;-1.10;1.00;;;;;;5057593;28;20654;-72
2024/01/08 05:02:10;;;;;;;13.07;11.53;;;-1.00;1.00;;;;;;5057825;28;20174;-72
2024/01/08 05:04:36;;;;;;;12.27;10.77;;;-1.00;1.00;;;;;;5057191;28;20486;-72
2024/01/08 05:07:02;;;;;;;12.00;10.80;;;-1.00;1.00;;;;;;5056727;28;20786;-72
2024/01/08 05:09:29;;;;;;;11.47;10.37;;;-1.10;1.00;;;;;;5057007;28;20544;-72
2024/01/08 05:11:55;;;;;;;12.07;10.77;;;-0.90;1.00;;;;;;5057176;28;20240;-73
2024/01/08 05:14:20;;;;;;;11.87;10.77;;;-0.90;1.00;;;;;;5058942;28;20179;-72
2024/01/08 05:16:46;;;;;;;12.23;10.93;;;-1.00;1.00;;;;;;5058193;28;20175;-73
2024/01/08 05:19:12;;;;;;;17.03;12.23;;;-0.90;1.00;;;;;;5058929;28;20688;-73
2024/01/08 05:21:37;;;;;;;14.77;12.37;;;-0.90;1.00;;;;;;5059160;28;20178;-73
2024/01/08 05:24:03;;;;;;;15.00;11.43;;;-1.00;1.00;;;;;;5055761;28;20183;-74
2024/01/08 05:26:29;;;;;;;15.07;12.03;;;-1.00;1.00;;;;;;5055676;28;20341;-72
2024/01/08 05:28:54;;;;;;;13.87;12.37;;;-0.90;1.00;;;;;;5056384;28;20240;-72
2024/01/08 05:31:22;;;;;;;16.33;12.00;;;-1.10;1.00;;;;;;5055384;28;20701;-72
2024/01/08 05:33:49;;;;;;;14.37;12.23;;;-1.10;1.00;;;;;;5055681;28;20543;-73
2024/01/08 05:36:14;;;;;;;13.23;11.60;;;-1.10;1.00;;;;;;5055761;28;20182;-73
2024/01/08 05:38:40;;;;;;;11.77;10.53;;;-0.90;1.00;;;;;;5055205;28;20198;-72
2024/01/08 05:41:05;;;;;;;13.37;12.00;;;-1.10;1.00;;;;;;5053839;28;20179;-73
2024/01/08 05:43:37;;;;;;;14.23;11.77;;;-1.20;1.00;;;;;;5054228;28;20544;-72
2024/01/08 05:46:06;;;;;;;14.67;11.87;;;-1.00;1.00;;;;;;5054574;28;20206;-72
2024/01/08 05:48:37;;;;;;;12.67;11.20;;;-0.90;1.00;;;;;;5053768;28;20218;-72
2024/01/08 05:51:04;;;;;;;14.30;12.80;;;-1.10;1.00;;;;;;5053391;28;20186;-72
2024/01/08 05:53:31;;;;;;;14.47;11.87;;;-1.10;1.00;;;;;;5052239;28;20588;-72
2024/01/08 05:55:57;;;;;;;14.57;12.50;;;-1.10;1.00;;;;;;5053581;28;20257;-72
2024/01/08 05:58:22;;;;;;;23.90;17.40;;;-1.10;1.00;;;;;;5053458;28;20618;-72
2024/01/08 06:00:48;;;;;;;17.87;12.47;;;-0.90;1.00;;;;;;5053625;28;20237;-72
2024/01/08 06:03:14;;;;;;;16.10;13.23;;;-0.90;1.00;;;;;;5053347;28;20214;-72
2024/01/08 06:05:39;;;;;;;12.77;11.33;;;-0.90;1.00;;;;;;5053088;28;20260;-72
2024/01/08 06:08:06;;;;;;;15.50;11.30;;;-1.00;1.00;;;;;;5051790;28;20366;-72
2024/01/08 06:10:31;;;;;;;24.13;16.53;;;-1.00;1.00;;;;;;5053048;28;20203;-72
2024/01/08 06:12:57;;;;;;;16.37;12.80;;;-1.10;1.00;;;;;;5053223;28;20202;-73
2024/01/08 06:15:22;;;;;;;11.80;10.60;;;-0.90;1.00;;;;;;5053269;28;20183;-73
2024/01/08 06:17:48;;;;;;;14.57;11.13;;;-0.90;1.00;;;;;;5053115;28;20204;-73
2024/01/08 06:20:14;;;;;;;12.63;11.33;;;-0.90;1.00;;;;;;5053962;28;20189;-74
2024/01/08 06:22:40;;;;;;;12.87;11.30;;;-1.00;1.00;;;;;;5056141;28;20182;-73
2024/01/08 06:25:05;;;;;;;13.37;10.97;;;-1.10;1.00;;;;;;5054469;28;20210;-72
2024/01/08 06:27:31;;;;;;;12.33;11.03;;;-1.10;1.00;;;;;;5052837;28;20223;-72
2024/01/08 06:29:57;;;;;;;11.97;9.93;;;-1.00;1.00;;;;;;5052963;28;20252;-72
2024/01/08 06:32:22;;;;;;;11.63;10.47;;;-1.00;1.00;;;;;;5052628;28;20175;-72
2024/01/08 06:34:49;;;;;;;11.33;10.13;;;-1.10;1.00;;;;;;5052152;28;20171;-72
2024/01/08 06:37:15;;;;;;;12.63;10.73;;;-0.90;1.00;;;;;;5052739;28;20205;-72
2024/01/08 06:39:40;;;;;;;12.97;10.57;;;-1.00;1.00;;;;;;5051350;28;20190;-72
2024/01/08 06:42:06;;;;;;;11.57;10.33;;;-0.90;1.00;;;;;;5052363;28;20297;-72
2024/01/08 06:44:31;;;;;;;10.70;9.70;;;-1.00;1.00;;;;;;5052493;28;20179;-74
2024/01/08 06:46:57;;;;;;;12.67;10.03;;;-0.90;1.00;;;;;;5052113;28;20260;-73
2024/01/08 06:49:23;;;;;;;11.63;10.23;;;-1.00;1.00;;;;;;5052431;28;20257;-72
2024/01/08 06:51:49;;;;;;;12.47;11.27;;;-1.00;1.00;;;;;;5052319;28;20586;-72
2024/01/08 06:54:14;;;;;;;11.93;10.70;;;-1.00;1.00;;;;;;5052220;28;20524;-72
2024/01/08 06:56:40;;;;;;;10.77;9.77;;;-1.00;1.00;;;;;;5052239;28;20179;-73
2024/01/08 06:59:06;;;;;;;11.33;10.23;;;-0.80;1.00;;;;;;5052207;28;20201;-73
2024/01/08 07:01:31;;;;;;;11.30;10.10;;;-0.80;1.00;;;;;;5052164;28;20178;-73
2024/01/08 07:03:57;;;;;;;12.43;10.57;;;-1.00;1.00;;;;;;5052130;28;20179;-73
2024/01/08 07:06:23;;;;;;;13.10;9.90;;;-0.80;1.00;;;;;;5052560;28;20240;-73
2024/01/08 07:08:49;;;;;;;15.00;11.30;;;-0.80;1.00;;;;;;5051532;28;20221;-73
2024/01/08 07:11:22;;;;;;;12.27;11.00;;;-1.00;1.00;;;;;;5051938;28;20276;-73
2024/01/08 07:13:49;;;;;;;11.10;10.07;;;-0.80;1.00;;;;;;5051641;28;20175;-74
2024/01/08 07:16:15;;;;;;;11.70;10.37;;;-0.90;1.00;;;;;;5050446;28;20239;-72
2024/01/08 07:18:41;;;;;;;16.53;11.67;;;-0.80;1.00;;;;;;5051658;28;20305;-72
2024/01/08 07:21:07;;;;;;;11.37;10.17;;;-0.70;1.00;;;;;;5051557;28;20185;-73
2024/01/08 07:23:35;;;;;;;11.10;10.00;;;-0.80;1.00;;;;;;5051897;28;20284;-73
2024/01/08 07:26:01;;;;;;;9.57;8.77;;;-0.70;1.00;;;;;;5051924;28;20722;-73
2024/01/08 07:28:28;;;;;;;10.53;9.53;;;-0.70;1.00;;;;;;5051417;28;20287;-73
2024/01/08 07:30:54;;;;;;;13.13;9.87;;;-0.70;1.00;;;;;;5051569;28;20240;-73
2024/01/08 07:33:21;;;;;;;8.83;7.93;;;-0.60;1.00;;;;;;5051766;28;20186;-73
2024/01/08 07:35:47;;;;;;;10.17;8.67;;;-0.70;1.00;;;;;;5051530;28;20187;-73
2024/01/08 07:38:12;;;;;;;8.07;7.37;;;-0.70;1.00;;;;;;5050219;28;20203;-73
2024/01/08 07:40:38;;;;;;;9.37;8.47;;;-0.70;1.00;;;;;;5051997;28;20174;-73
2024/01/08 07:43:04;;;;;;;9.97;8.70;;;-0.70;1.00;;;;;;5052513;28;20194;-73
2024/01/08 07:45:29;;;;;;;9.90;8.60;;;-0.60;1.00;;;;;;5055652;28;20634;-73
2024/01/08 07:47:56;;;;;;;11.47;8.43;;;-0.70;1.00;;;;;;5050923;28;20194;-73
2024/01/08 07:50:22;;;;;;;10.53;9.10;;;-0.70;1.00;;;;;;5050254;28;20182;-73
2024/01/08 07:52:48;;;;;;;9.30;8.40;;;-0.60;1.00;;;;;;5049538;28;20760;-73
2024/01/08 07:55:14;;;;;;;8.60;7.87;;;-0.70;1.00;;;;;;5050900;28;20257;-73
2024/01/08 07:57:40;;;;;;;10.07;9.07;;;-0.80;1.00;;;;;;5050950;28;20199;-73
2024/01/08 08:00:09;;;;;;;8.33;7.63;;;-0.70;1.00;;;;;;5051587;28;20186;-74
2024/01/08 08:02:38;;;;;;;10.00;8.27;;;-0.60;1.00;;;;;;5051437;28;20181;-73
2024/01/08 08:05:05;;;;;;;9.10;8.20;;;-0.70;1.00;;;;;;5031327;28;20630;-73
2024/01/08 08:07:35;;;;;;;12.30;8.23;;;-0.60;1.00;;;;;;5037283;28;20191;-75
2024/01/08 08:10:01;;;;;;;8.47;7.60;;;-0.70;1.00;;;;;;5039918;28;20250;-74
2024/01/08 08:12:27;;;;;;;9.03;8.13;;;-0.70;1.00;;;;;;5040382;28;20202;-74
2024/01/08 08:14:53;;;;;;;8.60;7.73;;;-0.70;1.00;;;;;;5037890;28;20171;-74
2024/01/08 08:17:19;;;;;;;8.63;7.87;;;-0.60;1.00;;;;;;5058783;28;20190;-75
2024/01/08 08:19:45;;;;;;;8.93;8.13;;;-0.70;1.00;;;;;;5058191;28;20554;-75
2024/01/08 08:22:14;;;;;;;8.80;7.80;;;-0.60;1.00;;;;;;5060268;28;20195;-74
2024/01/08 08:24:40;;;;;;;9.33;8.43;;;-0.50;1.00;;;;;;5059001;28;20175;-75
2024/01/08 08:27:10;;;;;;;8.80;7.90;;;-0.60;1.00;;;;;;5057468;28;20803;-74
2024/01/08 08:29:43;;;;;;;8.80;7.97;;;-0.50;1.00;;;;;;5038876;28;20198;-75
2024/01/08 08:32:09;;;;;;;8.10;7.40;;;-0.60;1.00;;;;;;5055703;28;20175;-73
2024/01/08 08:34:35;;;;;;;8.83;8.03;;;-0.50;1.00;;;;;;5052814;28;20232;-74
2024/01/08 08:37:00;;;;;;;8.07;7.37;;;-0.70;1.00;;;;;;5055681;28;20629;-75
2024/01/08 08:39:26;;;;;;;8.90;8.00;;;-0.60;1.00;;;;;;5056232;28;20198;-76
2024/01/08 08:41:52;;;;;;;8.67;7.83;;;-0.50;1.00;;;;;;5054625;28;20174;-74
2024/01/08 08:44:18;;;;;;;8.33;7.57;;;-0.50;1.00;;;;;;5052323;28;20274;-74
2024/01/08 08:46:44;;;;;;;8.37;7.60;;;-0.50;1.00;;;;;;5050145;28;20214;-74
2024/01/08 08:49:12;;;;;;;8.17;7.53;;;-0.50;1.00;;;;;;5050617;28;20642;-74
2024/01/08 08:51:37;;;;;;;8.40;7.70;;;-0.50;1.00;;;;;;5049726;28;20228;-74
2024/01/08 08:54:04;;;;;;;8.07;7.43;;;-0.40;1.00;;;;;;5049145;28;20175;-74
2024/01/08 08:56:33;;;;;;;7.30;6.63;;;-0.40;1.00;;;;;;5050159;28;20174;-73
2024/01/08 08:58:59;;;;;;;8.20;7.40;;;-0.40;1.00;;;;;;5053249;28;20187;-73
2024/01/08 09:01:26;;;;;;;8.20;7.40;;;-0.30;1.00;;;;;;5054081;28;20174;-73
2024/01/08 09:03:52;;;;;;;7.87;7.17;;;-0.40;1.00;;;;;;5054057;28;20171;-73
2024/01/08 09:06:20;;;;;;;7.73;7.03;;;-0.40;1.00;;;;;;5053488;28;20198;-73
2024/01/08 09:08:47;;;;;;;7.93;7.23;;;-0.40;1.00;;;;;;5053701;28;20191;-73
2024/01/08 09:11:13;;;;;;;10.27;8.30;;;-0.40;1.00;;;;;;5053628;28;20175;-74
2024/01/08 09:13:38;;;;;;;8.80;8.07;;;-0.20;1.00;;;;;;5053979;28;20186;-74
2024/01/08 09:16:04;;;;;;;9.23;7.80;;;-0.20;1.00;;;;;;5053932;28;20217;-73
2024/01/08 09:18:30;;;;;;;8.87;8.07;;;-0.20;1.00;;;;;;5053494;28;20217;-74
2024/01/08 09:20:55;;;;;;;9.37;8.57;;;-0.20;1.00;;;;;;5054231;28;20254;-75
2024/01/08 09:23:21;;;;;;;10.13;9.23;;;-0.20;1.00;;;;;;5053621;28;20681;-74
2024/01/08 09:25:47;;;;;;;9.33;8.43;;;-0.20;1.00;;;;;;5053407;28;20275;-74
2024/01/08 09:28:13;;;;;;;8.80;8.07;;;-0.20;1.00;;;;;;5053157;28;20211;-74
2024/01/08 09:30:38;;;;;;;8.70;8.00;;;-0.10;1.00;;;;;;5053846;28;20258;-74
2024/01/08 09:33:04;;;;;;;10.30;8.60;;;-0.20;1.00;;;;;;5053529;28;20250;-74
2024/01/08 09:35:30;;;;;;;7.97;7.27;;;-0.20;1.00;;;;;;5053351;28;20170;-73
2024/01/08 09:37:55;;;;;;;8.70;7.90;;;-0.10;1.00;;;;;;5038448;28;20259;-74
2024/01/08 09:40:21;;;;;;;9.63;8.37;;;-0.10;1.00;;;;;;5053456;28;20167;-74
2024/01/08 09:42:52;;;;;;;8.40;7.50;;;0.00;1.00;;;;;;5052725;28;20202;-74
2024/01/08 09:45:22;;;;;;;8.67;7.87;;;0.00;1.00;;;;;;5052527;28;20276;-73
2024/01/08 09:47:49;;;;;;;8.80;7.83;;;0.20;1.00;;;;;;5063823;28;20189;-73
2024/01/08 09:50:15;;;;;;;9.37;8.57;;;0.10;1.00;;;;;;5060682;28;20265;-74
2024/01/08 09:52:43;;;;;;;9.17;8.37;;;0.10;1.00;;;;;;5061353;28;20174;-74
2024/01/08 09:55:10;;;;;;;10.27;9.27;;;0.20;1.00;;;;;;5062047;28;20171;-74
2024/01/08 09:57:35;;;;;;;11.27;8.53;;;0.00;1.00;;;;;;5061994;28;20195;-74
2024/01/08 10:00:02;;;;;;;9.60;8.70;;;0.20;1.00;;;;;;5063909;28;20174;-74
2024/01/08 10:02:28;;;;;;;8.73;7.83;;;0.50;1.00;;;;;;5062887;28;20257;-74
2024/01/08 10:04:54;;;;;;;9.87;8.63;;;1.10;1.00;;;;;;5062285;28;20675;-75
2024/01/08 10:07:19;;;;;;;9.13;7.87;;;1.70;1.00;;;;;;5053529;28;20211;-74
2024/01/08 10:09:45;;;;;;;8.00;7.23;;;2.20;1.00;;;;;;5052541;28;20309;-74
2024/01/08 10:12:11;;;;;;;7.50;6.80;;;2.60;1.00;;;;;;5053137;28;20179;-74
2024/01/08 10:14:37;;;;;;;7.77;6.90;;;2.60;1.00;;;;;;5055259;28;20254;-74
2024/01/08 10:17:03;;;;;;;8.43;7.27;;;2.40;1.00;;;;;;5054668;28;20222;-74
2024/01/08 10:19:29;;;;;;;8.30;7.47;;;2.40;1.00;;;;;;5052922;28;20194;-74
2024/01/08 10:22:07;;;;;;;7.80;7.10;;;2.40;1.00;;;;;;5052611;28;20669;-74
2024/01/08 10:24:34;;;;;;;8.00;7.00;;;2.10;1.00;;;;;;5055506;28;20258;-74
2024/01/08 10:26:59;;;;;;;8.17;7.57;;;1.90;1.00;;;;;;5052815;28;20553;-74
2024/01/08 10:29:25;;;;;;;7.97;6.97;;;1.60;1.00;;;;;;5053038;28;20262;-74
2024/01/08 10:31:50;;;;;;;7.87;7.17;;;1.40;1.00;;;;;;5052978;28;20171;-73
2024/01/08 10:34:16;;;;;;;8.37;7.43;;;1.00;1.00;;;;;;5052589;28;20175;-73
2024/01/08 10:36:44;;;;;;;7.67;7.07;;;0.80;1.00;;;;;;5052535;28;20178;-73
2024/01/08 10:39:10;;;;;;;6.80;6.30;;;0.60;1.00;;;;;;5052753;28;20198;-72
2024/01/08 10:41:36;;;;;;;7.37;6.77;;;0.50;1.00;;;;;;5053295;28;20185;-74
2024/01/08 10:44:03;;;;;;;7.23;6.53;;;0.30;1.00;;;;;;5056447;28;20198;-73
2024/01/08 10:46:34;;;;;;;7.43;6.73;;;0.30;1.00;;;;;;5052305;28;20249;-73
2024/01/08 10:49:01;;;;;;;7.10;6.60;;;0.30;1.00;;;;;;5051013;28;20194;-71
2024/01/08 10:51:27;;;;;;;7.83;7.23;;;0.10;1.00;;;;;;5052091;28;20236;-71
2024/01/08 10:53:55;;;;;;;6.97;6.47;;;0.00;1.00;;;;;;5053396;28;20167;-73
2024/01/08 10:56:26;;;;;;;6.90;6.17;;;-0.10;1.00;;;;;;5053886;28;20182;-71
2024/01/08 10:59:05;;;;;;;6.33;5.87;;;-0.10;1.00;;;;;;5051791;28;20195;-74
2024/01/08 11:01:32;;;;;;;6.77;6.17;;;-0.10;1.00;;;;;;5051966;28;20174;-74
2024/01/08 11:04:00;;;;;;;6.57;5.97;;;-0.10;1.00;;;;;;5051873;28;20170;-74
2024/01/08 11:06:28;;;;;;;7.93;7.23;;;0.30;1.00;;;;;;5050344;28;20226;-73
2024/01/08 11:08:57;;;;;;;6.60;6.00;;;0.70;1.00;;;;;;5051555;28;20677;-72
2024/01/08 11:11:23;;;;;;;6.63;6.03;;;0.80;1.00;;;;;;5051670;28;20179;-74
2024/01/08 11:13:49;;;;;;;6.73;6.07;;;1.00;1.00;;;;;;5052107;28;20257;-74
2024/01/08 11:16:25;;;;;;;6.00;5.47;;;1.20;1.00;;;;;;5051655;28;20721;-74
2024/01/08 11:18:51;;;;;;;6.80;6.20;;;1.10;1.00;;;;;;5051532;28;20558;-73
2024/01/08 11:21:23;;;;;;;6.77;6.00;;;1.10;1.00;;;;;;5050804;28;20177;-73
2024/01/08 11:23:49;;;;;;;6.07;5.40;;;1.10;1.00;;;;;;5051929;28;20220;-72
2024/01/08 11:26:22;;;;;;;6.87;6.23;;;1.20;1.00;;;;;;5050155;28;20234;-74
2024/01/08 11:29:05;;;;;;;5.97;5.47;;;1.30;1.00;;;;;;5051278;28;20197;-74
2024/01/08 11:31:36;;;;;;;5.77;5.30;;;1.40;1.00;;;;;;5051393;28;20588;-74
2024/01/08 11:34:38;;;;;;;6.40;5.90;;;1.40;1.00;;;;;;5051275;28;20513;-72
2024/01/08 11:37:30;;;;;;;6.43;5.83;;;1.50;1.00;;;;;;5051313;28;20186;-74
2024/01/08 11:39:56;;;;;;;6.03;5.50;;;1.50;1.00;;;;;;5051484;28;20175;-74
2024/01/08 11:42:22;;;;;;;6.73;6.03;;;1.60;1.00;;;;;;5051483;28;20178;-74
2024/01/08 11:44:51;;;;;;;7.23;6.20;;;1.50;1.00;;;;;;5051657;28;20202;-74
2024/01/08 11:47:17;;;;;;;6.30;5.80;;;1.50;1.00;;;;;;5051439;28;20210;-73
2024/01/08 11:49:43;;;;;;;6.30;5.73;;;1.50;1.00;;;;;;5051865;28;20177;-74
2024/01/08 11:52:09;;;;;;;6.60;6.00;;;1.50;1.00;;;;;;5054104;28;20641;-74
2024/01/08 11:54:35;;;;;;;7.13;6.43;;;1.50;1.00;;;;;;5051798;28;20172;-74
2024/01/08 11:57:05;;;;;;;6.53;6.03;;;1.50;1.00;;;;;;5051169;28;20549;-74
2024/01/08 11:59:35;;;;;;;7.07;6.30;;;1.50;1.00;;;;;;5050896;28;20257;-74
2024/01/08 12:02:27;;;;;;;7.17;5.70;;;1.40;1.00;;;;;;5051152;28;20540;-74
2024/01/08 12:05:00;;;;;;;6.20;5.70;;;1.40;1.00;;;;;;5049018;28;20201;-74
2024/01/08 12:07:27;;;;;;;6.90;5.70;;;1.40;1.00;;;;;;5050675;28;20202;-74
2024/01/08 12:09:53;;;;;;;5.57;5.07;;;1.40;1.00;;;;;;5050965;28;20200;-73
2024/01/08 12:12:20;;;;;;;6.97;6.23;;;1.50;1.00;;;;;;5051152;28;20170;-75
2024/01/08 12:14:47;;;;;;;6.00;5.20;;;1.50;1.00;;;;;;5051017;28;20170;-74
2024/01/08 12:17:14;;;;;;;6.10;5.50;;;1.30;1.00;;;;;;5051080;28;20190;-74
2024/01/08 12:19:51;;;;;;;5.73;5.23;;;1.10;1.00;;;;;;5050662;28;20630;-72
2024/01/08 12:22:17;;;;;;;5.77;5.17;;;1.10;1.00;;;;;;5051577;28;20249;-73
2024/01/08 12:24:48;;;;;;;6.27;5.67;;;1.00;1.00;;;;;;5050823;28;20170;-73
2024/01/08 12:27:19;;;;;;;6.03;5.50;;;1.00;1.00;;;;;;5050634;28;20708;-74
2024/01/08 12:29:46;;;;;;;5.70;5.20;;;1.00;1.00;;;;;;5050994;28;20265;-74
2024/01/08 12:32:18;;;;;;;6.47;5.87;;;0.90;1.00;;;;;;5051033;28;20536;-71
2024/01/08 12:34:46;;;;;;;5.80;5.30;;;0.80;1.00;;;;;;5055229;28;20270;-75
2024/01/08 12:37:13;;;;;;;5.90;5.30;;;0.60;1.00;;;;;;5054543;28;20202;-76
2024/01/08 12:39:39;;;;;;;6.63;5.93;;;0.50;1.00;;;;;;5054617;28;20277;-74
2024/01/08 12:42:09;;;;;;;6.30;5.57;;;0.30;1.00;;;;;;5054645;28;20178;-75
2024/01/08 12:44:36;;;;;;;6.37;5.73;;;0.50;1.00;;;;;;5054496;28;20179;-72
2024/01/08 12:47:04;;;;;;;6.20;5.70;;;0.50;1.00;;;;;;5054443;28;20747;-74
2024/01/08 12:49:30;;;;;;;6.10;5.60;;;0.50;1.00;;;;;;5054434;28;20169;-74